createdAt,value
2019-05-07T00:01:35.046Z,8.47
2019-05-07T00:03:42.202Z,8.47
2019-05-07T00:05:49.086Z,8.47
2019-05-07T00:07:55.505Z,8.47
2019-05-07T00:10:03.380Z,8.47
2019-05-07T00:12:12.469Z,8.49
2019-05-07T00:14:18.581Z,8.49
2019-05-07T00:16:25.032Z,8.48
2019-05-07T00:18:32.162Z,8.45
2019-05-07T00:20:38.901Z,8.43
2019-05-07T00:22:45.283Z,8.42
2019-05-07T00:24:52.225Z,8.41
2019-05-07T00:26:58.975Z,8.38
2019-05-07T00:29:05.484Z,8.33
2019-05-07T00:31:12.406Z,8.31
2019-05-07T00:33:19.024Z,8.28
2019-05-07T00:35:33.066Z,8.29
2019-05-07T00:37:43.813Z,8.26
2019-05-07T00:40:03.914Z,8.27
2019-05-07T00:42:10.063Z,8.28
2019-05-07T00:44:18.235Z,8.26
2019-05-07T00:46:27.192Z,8.23
2019-05-07T00:48:33.578Z,8.22
2019-05-07T00:50:42.136Z,8.19
2019-05-07T00:52:48.618Z,8.16
2019-05-07T00:54:54.987Z,8.12
2019-05-07T00:57:03.136Z,8.11
2019-05-07T00:59:09.483Z,8.08
2019-05-07T01:01:15.864Z,8.04
2019-05-07T01:03:22.384Z,8.01
2019-05-07T01:05:28.840Z,7.96
2019-05-07T01:07:35.229Z,7.92
2019-05-07T01:09:43.066Z,7.87
2019-05-07T01:11:49.591Z,7.82
2019-05-07T01:13:55.960Z,7.74
2019-05-07T01:16:02.595Z,7.64
2019-05-07T01:18:09.010Z,7.55
2019-05-07T01:20:15.699Z,7.46
2019-05-07T01:22:22.361Z,7.39
2019-05-07T01:24:28.854Z,7.31
2019-05-07T01:26:35.315Z,7.26
2019-05-07T01:29:02.432Z,7.20
2019-05-07T01:31:08.188Z,7.14
2019-05-07T01:33:18.959Z,7.09
2019-05-07T01:35:32.714Z,7.05
2019-05-07T01:37:38.881Z,7.01
2019-05-07T01:39:45.397Z,6.99
2019-05-07T01:41:52.414Z,6.99
2019-05-07T01:43:59.166Z,6.97
2019-05-07T01:46:05.541Z,6.96
2019-05-07T01:48:11.951Z,6.97
2019-05-07T01:50:18.435Z,6.96
2019-05-07T01:52:24.810Z,6.98
2019-05-07T01:54:33.344Z,6.98
2019-05-07T01:56:39.318Z,6.98
2019-05-07T01:58:45.703Z,6.97
2019-05-07T02:00:53.162Z,6.94
2019-05-07T02:03:07.362Z,6.89
2019-05-07T02:05:34.178Z,6.87
2019-05-07T02:07:42.943Z,6.86
2019-05-07T02:09:51.891Z,6.84
2019-05-07T02:12:02.439Z,6.80
2019-05-07T02:14:09.212Z,6.77
2019-05-07T02:16:15.624Z,6.76
2019-05-07T02:18:22.006Z,6.72
2019-05-07T02:20:28.377Z,6.68
2019-05-07T02:22:34.963Z,6.67
2019-05-07T02:24:43.330Z,6.64
2019-05-07T02:26:49.413Z,6.62
2019-05-07T02:28:55.820Z,6.60
2019-05-07T02:31:04.087Z,6.57
2019-05-07T02:33:13.513Z,6.57
2019-05-07T02:35:18.820Z,6.56
2019-05-07T02:37:34.123Z,6.52
2019-05-07T02:39:36.701Z,6.49
2019-05-07T02:41:44.031Z,6.43
2019-05-07T02:43:53.495Z,6.41
2019-05-07T02:46:17.428Z,6.38
2019-05-07T02:48:09.259Z,6.36
2019-05-07T02:50:17.366Z,6.31
2019-05-07T02:52:25.377Z,6.29
2019-05-07T02:54:49.581Z,6.20
2019-05-07T02:56:56.017Z,6.17
2019-05-07T02:59:03.999Z,6.15
2019-05-07T03:01:13.898Z,6.14
2019-05-07T03:03:19.919Z,6.11
2019-05-07T03:05:26.379Z,6.06
2019-05-07T03:07:34.016Z,6.00
2019-05-07T03:09:43.232Z,5.93
2019-05-07T03:11:48.463Z,5.87
2019-05-07T03:13:54.942Z,5.82
2019-05-07T03:16:03.817Z,5.76
2019-05-07T03:18:09.648Z,5.71
2019-05-07T03:20:18.119Z,5.64
2019-05-07T03:22:24.599Z,5.57
2019-05-07T03:24:34.383Z,5.52
2019-05-07T03:26:43.389Z,5.47
2019-05-07T03:28:53.643Z,5.43
2019-05-07T03:30:59.738Z,5.40
2019-05-07T03:33:08.020Z,5.33
2019-05-07T03:35:37.159Z,5.31
2019-05-07T03:37:43.427Z,5.30
2019-05-07T03:39:49.150Z,5.27
2019-05-07T03:41:55.850Z,5.25
2019-05-07T03:44:04.032Z,5.23
2019-05-07T03:46:14.147Z,5.22
2019-05-07T03:48:23.829Z,5.22
2019-05-07T03:50:29.824Z,5.23
2019-05-07T03:52:36.237Z,5.22
2019-05-07T03:54:43.274Z,5.22
2019-05-07T03:56:52.811Z,5.23
2019-05-07T03:58:57.840Z,5.18
2019-05-07T04:01:04.748Z,5.17
2019-05-07T04:03:13.449Z,5.16
2019-05-07T04:05:19.539Z,5.15
2019-05-07T04:07:25.974Z,5.15
2019-05-07T04:09:33.354Z,5.18
2019-05-07T04:11:43.344Z,5.23
2019-05-07T04:13:49.847Z,5.34
2019-05-07T04:15:56.235Z,5.46
2019-05-07T04:18:03.839Z,5.55
2019-05-07T04:20:13.335Z,5.67
2019-05-07T04:22:19.799Z,5.79
2019-05-07T04:24:27.836Z,5.98
2019-05-07T04:26:38.918Z,6.16
2019-05-07T04:29:05.981Z,7.04
2019-05-07T04:31:14.134Z,8.83
2019-05-07T04:33:26.166Z,10.63
2019-05-07T04:35:54.198Z,12.01
2019-05-07T04:38:05.350Z,13.41
2019-05-07T04:40:09.248Z,14.29
2019-05-07T04:42:16.989Z,15.40
2019-05-07T04:44:23.762Z,15.98
2019-05-07T04:46:33.055Z,16.57
2019-05-07T04:48:38.496Z,17.53
2019-05-07T04:50:47.683Z,17.70
2019-05-07T04:52:54.669Z,18.03
2019-05-07T04:55:04.033Z,18.45
2019-05-07T04:57:12.855Z,18.85
2019-05-07T04:59:18.909Z,18.98
2019-05-07T05:01:26.943Z,19.63
2019-05-07T05:03:34.622Z,20.30
2019-05-07T05:05:43.602Z,20.99
2019-05-07T05:07:49.724Z,21.70
2019-05-07T05:09:56.146Z,21.94
2019-05-07T05:12:02.961Z,22.16
2019-05-07T05:14:09.559Z,22.44
2019-05-07T05:16:28.155Z,22.80
2019-05-07T05:18:34.562Z,23.07
2019-05-07T05:20:42.664Z,22.90
2019-05-07T05:23:07.052Z,22.94
2019-05-07T05:25:16.854Z,22.15
2019-05-07T05:27:23.326Z,22.84
2019-05-07T05:29:29.770Z,22.66
2019-05-07T05:31:36.163Z,22.93
2019-05-07T05:33:42.768Z,22.87
2019-05-07T05:35:49.193Z,23.70
2019-05-07T05:37:55.581Z,24.45
2019-05-07T05:40:08.540Z,24.75
2019-05-07T05:42:11.939Z,24.68
2019-05-07T05:44:32.176Z,25.25
2019-05-07T05:46:38.848Z,25.29
2019-05-07T05:48:45.272Z,25.29
2019-05-07T05:50:53.598Z,25.41
2019-05-07T05:53:03.592Z,25.51
2019-05-07T05:55:12.092Z,25.53
2019-05-07T05:57:23.245Z,25.25
2019-05-07T05:59:49.137Z,26.05
2019-05-07T06:02:06.639Z,25.68
2019-05-07T06:04:14.893Z,25.82
2019-05-07T06:06:24.114Z,26.02
2019-05-07T06:08:32.663Z,27.17
2019-05-07T06:10:46.148Z,27.33
2019-05-07T06:12:54.028Z,28.01
2019-05-07T06:15:08.070Z,28.11
2019-05-07T06:17:15.751Z,26.63
2019-05-07T06:19:29.120Z,26.65
2019-05-07T06:21:53.134Z,26.61
2019-05-07T06:24:13.181Z,25.51
2019-05-07T06:26:19.570Z,25.48
2019-05-07T06:28:25.993Z,25.19
2019-05-07T06:30:33.879Z,26.09
2019-05-07T06:32:42.762Z,26.77
2019-05-07T06:34:48.758Z,26.90
2019-05-07T06:36:55.146Z,27.56
2019-05-07T06:39:12.647Z,27.92
2019-05-07T06:41:36.875Z,28.29
2019-05-07T06:43:45.025Z,28.19
2019-05-07T06:45:53.122Z,29.14
2019-05-07T06:47:59.619Z,29.60
2019-05-07T06:50:07.764Z,28.46
2019-05-07T06:52:14.145Z,28.66
2019-05-07T06:54:22.573Z,28.46
2019-05-07T06:56:28.648Z,29.40
2019-05-07T06:58:41.342Z,28.93
2019-05-07T07:00:52.806Z,28.23
2019-05-07T07:03:02.031Z,27.15
2019-05-07T07:05:18.069Z,28.05
2019-05-07T07:07:32.344Z,29.75
2019-05-07T07:09:42.448Z,29.82
2019-05-07T07:11:52.795Z,29.04
2019-05-07T07:13:58.928Z,27.61
2019-05-07T07:16:05.492Z,28.68
2019-05-07T07:18:12.304Z,29.05
2019-05-07T07:20:21.706Z,29.19
2019-05-07T07:22:27.507Z,27.85
2019-05-07T07:24:33.884Z,28.15
2019-05-07T07:26:42.241Z,29.45
2019-05-07T07:28:48.434Z,29.84
2019-05-07T07:31:13.073Z,29.19
2019-05-07T07:33:22.460Z,27.84
2019-05-07T07:35:29.241Z,28.79
2019-05-07T07:37:37.257Z,29.89
2019-05-07T07:39:43.676Z,29.29
2019-05-07T07:41:52.369Z,28.25
2019-05-07T07:43:58.781Z,27.61
2019-05-07T07:46:05.470Z,26.65
2019-05-07T07:48:13.176Z,27.37
2019-05-07T07:50:22.274Z,28.59
2019-05-07T07:52:28.206Z,28.75
2019-05-07T07:54:34.614Z,28.23
2019-05-07T07:56:52.910Z,26.18
2019-05-07T07:59:14.619Z,23.66
2019-05-07T08:01:25.474Z,21.12
2019-05-07T08:03:32.939Z,19.39
2019-05-07T08:05:39.449Z,18.33
2019-05-07T08:07:45.894Z,17.99
2019-05-07T08:09:52.346Z,17.83
2019-05-07T08:11:59.229Z,17.71
2019-05-07T08:14:09.258Z,17.80
2019-05-07T08:16:15.786Z,17.91
2019-05-07T08:18:22.389Z,17.89
2019-05-07T08:20:29.016Z,17.51
2019-05-07T08:22:36.567Z,17.58
2019-05-07T08:24:42.973Z,17.92
2019-05-07T08:26:51.793Z,17.39
2019-05-07T08:28:57.590Z,17.07
2019-05-07T08:31:05.652Z,16.42
2019-05-07T08:33:14.825Z,16.28
2019-05-07T08:35:25.618Z,16.08
2019-05-07T08:37:32.250Z,16.30
2019-05-07T08:39:38.844Z,16.44
2019-05-07T08:41:45.288Z,16.49
2019-05-07T08:44:07.775Z,16.11
2019-05-07T08:46:18.546Z,16.04
2019-05-07T08:48:32.603Z,15.72
2019-05-07T08:50:39.103Z,15.68
2019-05-07T08:52:45.492Z,15.57
2019-05-07T08:54:51.967Z,15.52
2019-05-07T08:56:58.766Z,15.66
2019-05-07T08:59:07.362Z,15.73
2019-05-07T09:01:14.019Z,15.65
2019-05-07T09:03:25.018Z,15.61
2019-05-07T09:05:32.345Z,15.87
2019-05-07T09:07:38.986Z,16.07
2019-05-07T09:09:45.663Z,16.30
2019-05-07T09:11:52.052Z,16.36
2019-05-07T09:13:58.592Z,15.92
2019-05-07T09:16:06.993Z,15.42
2019-05-07T09:18:13.375Z,15.35
2019-05-07T09:20:19.827Z,15.52
2019-05-07T09:22:26.434Z,15.81
2019-05-07T09:24:33.491Z,16.13
2019-05-07T09:26:43.104Z,16.58
2019-05-07T09:28:56.644Z,16.68
2019-05-07T09:31:08.146Z,16.41
2019-05-07T09:33:16.164Z,16.24
2019-05-07T09:35:24.283Z,15.94
2019-05-07T09:37:32.733Z,16.00
2019-05-07T09:39:39.188Z,16.28
2019-05-07T09:41:45.805Z,16.84
2019-05-07T09:43:52.206Z,16.70
2019-05-07T09:45:58.656Z,16.22
2019-05-07T09:48:05.290Z,16.12
2019-05-07T09:50:12.177Z,15.84
2019-05-07T09:52:18.703Z,16.04
2019-05-07T09:54:25.208Z,15.85
2019-05-07T09:56:32.042Z,15.94
2019-05-07T09:58:39.289Z,15.79
2019-05-07T10:00:45.950Z,15.73
2019-05-07T10:02:52.929Z,15.92
2019-05-07T10:05:02.025Z,16.22
2019-05-07T10:07:09.043Z,16.22
2019-05-07T10:09:16.783Z,16.23
2019-05-07T10:11:32.865Z,15.38
2019-05-07T10:13:43.683Z,15.60
2019-05-07T10:15:52.512Z,15.56
2019-05-07T10:18:01.843Z,15.77
2019-05-07T10:20:19.325Z,15.68
2019-05-07T10:22:18.396Z,15.84
2019-05-07T10:24:24.856Z,15.88
2019-05-07T10:26:32.137Z,15.68
2019-05-07T10:28:40.132Z,15.51
2019-05-07T10:30:46.667Z,15.56
2019-05-07T10:32:53.161Z,15.43
2019-05-07T10:35:01.968Z,15.77
2019-05-07T10:37:08.139Z,16.23
2019-05-07T10:39:14.806Z,16.23
2019-05-07T10:41:22.380Z,15.92
2019-05-07T10:43:28.981Z,15.90
2019-05-07T10:45:53.543Z,15.65
2019-05-07T10:48:02.643Z,15.77
2019-05-07T10:50:33.147Z,15.78
2019-05-07T10:52:28.627Z,15.33
2019-05-07T10:54:35.147Z,15.61
2019-05-07T10:56:41.954Z,15.67
2019-05-07T10:58:48.780Z,15.76
2019-05-07T11:00:55.782Z,15.85
2019-05-07T11:03:02.538Z,16.10
2019-05-07T11:05:09.485Z,16.01
2019-05-07T11:07:16.705Z,16.22
2019-05-07T11:09:23.244Z,16.43
2019-05-07T11:11:31.770Z,16.27
2019-05-07T11:13:37.821Z,16.00
2019-05-07T11:15:45.914Z,15.77
2019-05-07T11:17:53.992Z,15.65
2019-05-07T11:20:00.426Z,15.51
2019-05-07T11:22:07.016Z,15.67
2019-05-07T11:24:13.689Z,15.60
2019-05-07T11:26:22.197Z,15.77
2019-05-07T11:28:28.824Z,15.64
2019-05-07T11:30:35.420Z,15.95
2019-05-07T11:32:42.924Z,16.13
2019-05-07T11:34:52.615Z,15.80
2019-05-07T11:36:58.799Z,15.87
2019-05-07T11:39:07.218Z,15.89
2019-05-07T11:41:13.374Z,15.44
2019-05-07T11:43:37.689Z,15.33
2019-05-07T11:45:54.503Z,15.19
2019-05-07T11:48:04.279Z,15.27
2019-05-07T11:50:14.752Z,15.37
2019-05-07T11:52:23.178Z,15.41
2019-05-07T11:54:31.677Z,15.86
2019-05-07T11:56:38.451Z,15.71
2019-05-07T11:58:44.846Z,15.87
2019-05-07T12:01:05.149Z,15.94
2019-05-07T12:03:11.632Z,16.07
2019-05-07T12:05:18.215Z,16.10
2019-05-07T12:07:24.748Z,16.17
2019-05-07T12:09:33.093Z,16.19
2019-05-07T12:11:39.481Z,16.19
2019-05-07T12:13:45.848Z,16.17
2019-05-07T12:15:52.406Z,16.05
2019-05-07T12:17:58.848Z,15.75
2019-05-07T12:20:06.638Z,15.74
2019-05-07T12:22:14.873Z,15.55
2019-05-07T12:24:22.337Z,15.75
2019-05-07T12:26:28.890Z,16.10
2019-05-07T12:28:36.476Z,15.88
2019-05-07T12:30:48.505Z,15.93
2019-05-07T12:33:12.175Z,15.90
2019-05-07T12:35:19.122Z,15.95
2019-05-07T12:37:25.505Z,16.07
2019-05-07T12:39:32.029Z,16.00
2019-05-07T12:41:38.577Z,16.07
2019-05-07T12:43:44.947Z,16.30
2019-05-07T12:45:52.478Z,16.17
2019-05-07T12:47:59.206Z,16.08
2019-05-07T12:50:05.875Z,16.10
2019-05-07T12:52:16.667Z,16.08
2019-05-07T12:54:36.983Z,16.08
2019-05-07T12:56:43.387Z,15.98
2019-05-07T12:58:51.806Z,15.88
2019-05-07T13:01:05.918Z,15.68
2019-05-07T13:03:32.324Z,15.24
2019-05-07T13:05:39.145Z,15.07
2019-05-07T13:07:47.196Z,15.10
2019-05-07T13:09:54.984Z,14.82
2019-05-07T13:12:03.047Z,15.30
2019-05-07T13:14:09.728Z,15.50
2019-05-07T13:16:16.130Z,15.62
2019-05-07T13:18:22.765Z,15.27
2019-05-07T13:20:29.325Z,14.96
2019-05-07T13:22:35.712Z,15.05
2019-05-07T13:24:42.621Z,15.14
2019-05-07T13:26:49.184Z,15.45
2019-05-07T13:28:55.575Z,15.51
2019-05-07T13:31:02.423Z,15.54
2019-05-07T13:33:08.884Z,15.80
2019-05-07T13:35:16.873Z,16.06
2019-05-07T13:37:25.482Z,16.09
2019-05-07T13:39:36.690Z,15.57
2019-05-07T13:41:43.422Z,15.40
2019-05-07T13:44:02.685Z,15.59
2019-05-07T13:46:16.016Z,15.51
2019-05-07T13:48:24.103Z,15.31
2019-05-07T13:50:32.545Z,15.49
2019-05-07T13:52:39.376Z,15.53
2019-05-07T13:54:45.763Z,15.27
2019-05-07T13:56:52.628Z,15.01
2019-05-07T13:58:59.242Z,14.71
2019-05-07T14:01:22.954Z,14.57
2019-05-07T14:03:29.703Z,14.42
2019-05-07T14:05:36.134Z,14.60
2019-05-07T14:07:43.964Z,14.68
2019-05-07T14:09:52.603Z,14.77
2019-05-07T14:11:58.968Z,14.48
2019-05-07T14:14:05.662Z,14.43
2019-05-07T14:16:14.976Z,14.38
2019-05-07T14:18:23.239Z,14.47
2019-05-07T14:20:29.844Z,14.60
2019-05-07T14:22:36.244Z,14.78
2019-05-07T14:24:42.671Z,14.88
2019-05-07T14:26:49.207Z,14.87
2019-05-07T14:28:56.791Z,15.07
2019-05-07T14:31:03.358Z,15.04
2019-05-07T14:33:12.454Z,14.98
2019-05-07T14:35:32.018Z,15.14
2019-05-07T14:37:48.576Z,15.25
2019-05-07T14:39:54.953Z,15.16
2019-05-07T14:42:06.008Z,15.06
2019-05-07T14:44:14.197Z,14.95
2019-05-07T14:46:21.462Z,15.01
2019-05-07T14:48:27.852Z,15.09
2019-05-07T14:50:34.491Z,15.13
2019-05-07T14:52:43.059Z,15.16
2019-05-07T14:54:49.296Z,15.41
2019-05-07T14:56:55.788Z,15.61
2019-05-07T14:59:40.021Z,15.75
2019-05-07T15:01:46.473Z,15.65
2019-05-07T15:03:53.128Z,15.83
2019-05-07T15:06:01.903Z,15.72
2019-05-07T15:08:11.720Z,15.33
2019-05-07T15:10:17.443Z,15.21
2019-05-07T15:12:24.888Z,15.10
2019-05-07T15:14:31.932Z,15.07
2019-05-07T15:16:38.465Z,14.94
2019-05-07T15:18:49.386Z,14.68
2019-05-07T15:20:55.829Z,14.47
2019-05-07T15:23:05.024Z,14.39
2019-05-07T15:25:15.958Z,14.31
2019-05-07T15:27:23.256Z,14.19
2019-05-07T15:29:31.734Z,13.96
2019-05-07T15:31:37.722Z,13.75
2019-05-07T15:33:44.247Z,13.68
2019-05-07T15:35:52.026Z,13.66
2019-05-07T15:38:02.284Z,13.68
2019-05-07T15:40:09.342Z,13.69
2019-05-07T15:42:15.763Z,13.68
2019-05-07T15:44:22.251Z,13.63
2019-05-07T15:46:28.790Z,13.71
2019-05-07T15:48:35.504Z,13.75
2019-05-07T15:50:42.896Z,13.73
2019-05-07T15:52:58.563Z,13.77
2019-05-07T15:55:02.766Z,13.86
2019-05-07T15:57:29.370Z,13.90
2019-05-07T15:59:35.760Z,13.97
2019-05-07T16:01:42.201Z,14.10
2019-05-07T16:03:49.073Z,14.12
2019-05-07T16:05:56.369Z,14.00
2019-05-07T16:08:04.149Z,13.98
2019-05-07T16:10:12.108Z,14.02
2019-05-07T16:12:22.607Z,14.04
2019-05-07T16:14:28.597Z,14.11
2019-05-07T16:16:36.693Z,14.19
2019-05-07T16:19:01.904Z,14.10
2019-05-07T16:21:08.498Z,14.14
2019-05-07T16:23:17.853Z,14.06
2019-05-07T16:25:22.964Z,13.95
2019-05-07T16:27:29.379Z,13.72
2019-05-07T16:29:36.026Z,13.64
2019-05-07T16:31:44.146Z,13.62
2019-05-07T16:33:52.127Z,13.57
2019-05-07T16:36:01.976Z,13.55
2019-05-07T16:38:08.110Z,13.54
2019-05-07T16:40:15.923Z,13.51
2019-05-07T16:42:22.376Z,13.41
2019-05-07T16:44:28.899Z,13.34
2019-05-07T16:46:35.355Z,13.32
2019-05-07T16:48:43.866Z,13.22
2019-05-07T16:50:52.267Z,13.19
2019-05-07T16:53:02.707Z,13.20
2019-05-07T16:55:12.289Z,13.14
2019-05-07T16:57:21.272Z,12.97
2019-05-07T16:59:28.038Z,12.87
2019-05-07T17:01:34.565Z,12.74
2019-05-07T17:03:42.779Z,12.68
2019-05-07T17:05:49.347Z,12.61
2019-05-07T17:07:57.443Z,12.52
2019-05-07T17:10:08.070Z,12.44
2019-05-07T17:12:16.193Z,12.35
2019-05-07T17:14:22.593Z,12.26
2019-05-07T17:16:28.980Z,12.19
2019-05-07T17:18:35.461Z,12.11
2019-05-07T17:20:43.009Z,12.06
2019-05-07T17:22:49.394Z,12.01
2019-05-07T17:24:55.815Z,11.97
2019-05-07T17:27:02.364Z,11.95
2019-05-07T17:29:11.932Z,11.93
2019-05-07T17:31:17.958Z,11.92
2019-05-07T17:33:24.487Z,11.94
2019-05-07T17:35:34.060Z,11.91
2019-05-07T17:37:39.125Z,11.87
2019-05-07T17:39:45.525Z,11.83
2019-05-07T17:41:51.940Z,11.83
2019-05-07T17:43:58.330Z,11.82
2019-05-07T17:46:05.000Z,11.81
2019-05-07T17:48:12.284Z,11.80
2019-05-07T17:50:32.152Z,11.79
2019-05-07T17:52:38.856Z,11.78
2019-05-07T17:54:45.242Z,11.77
2019-05-07T17:56:52.691Z,11.77
2019-05-07T17:58:59.442Z,11.73
2019-05-07T18:01:06.997Z,11.66
2019-05-07T18:03:32.304Z,11.59
2019-05-07T18:05:39.207Z,11.53
2019-05-07T18:07:46.770Z,11.42
2019-05-07T18:09:53.333Z,11.37
2019-05-07T18:11:59.777Z,11.30
2019-05-07T18:14:06.387Z,11.24
2019-05-07T18:16:14.498Z,11.17
2019-05-07T18:18:22.221Z,11.06
2019-05-07T18:20:28.883Z,10.98
2019-05-07T18:22:35.305Z,10.90
2019-05-07T18:24:41.986Z,10.80
2019-05-07T18:26:48.407Z,10.70
2019-05-07T18:28:54.868Z,10.62
2019-05-07T18:31:02.063Z,10.54
2019-05-07T18:33:14.554Z,10.46
2019-05-07T18:35:22.962Z,10.37
2019-05-07T18:37:29.239Z,10.30
2019-05-07T18:39:35.704Z,10.24
2019-05-07T18:41:42.211Z,10.21
2019-05-07T18:43:48.942Z,10.16
2019-05-07T18:45:56.969Z,10.10
2019-05-07T18:48:03.394Z,10.02
2019-05-07T18:50:09.996Z,9.95
2019-05-07T18:52:16.447Z,9.87
2019-05-07T18:54:29.917Z,9.80
2019-05-07T18:56:31.011Z,9.73
2019-05-07T18:58:37.867Z,9.65
2019-05-07T19:00:52.023Z,9.58
2019-05-07T19:03:01.257Z,9.53
2019-05-07T19:05:08.843Z,9.47
2019-05-07T19:07:15.322Z,9.38
2019-05-07T19:09:22.464Z,9.32
2019-05-07T19:11:29.267Z,9.27
2019-05-07T19:13:41.986Z,9.21
2019-05-07T19:15:49.028Z,9.14
2019-05-07T19:17:55.520Z,9.06
2019-05-07T19:20:03.367Z,9.04
2019-05-07T19:22:10.923Z,9.00
2019-05-07T19:24:17.518Z,8.96
2019-05-07T19:26:24.230Z,8.85
2019-05-07T19:28:32.781Z,8.82
2019-05-07T19:30:39.295Z,8.76
2019-05-07T19:32:45.835Z,8.64
2019-05-07T19:34:54.898Z,8.57
2019-05-07T19:37:02.438Z,8.47
2019-05-07T19:39:10.112Z,8.35
2019-05-07T19:41:17.393Z,8.24
2019-05-07T19:43:23.792Z,8.15
2019-05-07T19:45:30.348Z,8.07
2019-05-07T19:47:36.843Z,8.02
2019-05-07T19:49:43.212Z,7.94
2019-05-07T19:51:49.633Z,7.87
2019-05-07T19:53:58.326Z,7.79
2019-05-07T19:56:18.738Z,7.69
2019-05-07T19:58:25.368Z,7.62
2019-05-07T20:00:34.813Z,7.55
2019-05-07T20:02:43.169Z,7.48
2019-05-07T20:04:49.804Z,7.45
2019-05-07T20:07:12.440Z,7.41
2019-05-07T20:09:20.622Z,7.38
2019-05-07T20:11:33.247Z,7.33
2019-05-07T20:13:41.671Z,7.26
2019-05-07T20:15:52.085Z,7.17
2019-05-07T20:17:59.730Z,7.10
2019-05-07T20:20:13.465Z,7.02
2019-05-07T20:22:22.039Z,6.94
2019-05-07T20:24:37.884Z,6.89
2019-05-07T20:26:44.387Z,6.84
2019-05-07T20:28:54.134Z,6.79
2019-05-07T20:31:00.895Z,6.79
2019-05-07T20:33:07.309Z,6.77
2019-05-07T20:35:15.785Z,6.74
2019-05-07T20:37:22.356Z,6.71
2019-05-07T20:39:28.997Z,6.68
2019-05-07T20:41:54.408Z,6.64
2019-05-07T20:44:02.998Z,6.63
2019-05-07T20:46:09.477Z,6.59
2019-05-07T20:48:17.112Z,6.53
2019-05-07T20:50:24.926Z,6.49
2019-05-07T20:52:33.850Z,6.48
2019-05-07T20:54:47.662Z,6.45
2019-05-07T20:57:02.324Z,6.43
2019-05-07T20:59:08.816Z,6.43
2019-05-07T21:01:15.199Z,6.41
2019-05-07T21:03:24.562Z,6.37
2019-05-07T21:05:34.297Z,6.36
2019-05-07T21:07:42.381Z,6.32
2019-05-07T21:09:53.006Z,6.25
2019-05-07T21:12:01.595Z,6.19
2019-05-07T21:14:09.335Z,6.11
2019-05-07T21:16:18.860Z,6.02
2019-05-07T21:18:26.142Z,5.96
2019-05-07T21:20:32.520Z,5.92
2019-05-07T21:22:38.925Z,5.84
2019-05-07T21:24:46.984Z,5.80
2019-05-07T21:26:53.655Z,5.79
2019-05-07T21:29:03.103Z,5.79
2019-05-07T21:31:11.816Z,5.76
2019-05-07T21:33:17.963Z,5.72
2019-05-07T21:35:24.782Z,5.70
2019-05-07T21:37:32.378Z,5.71
2019-05-07T21:39:38.955Z,5.68
2019-05-07T21:41:45.467Z,5.67
2019-05-07T21:43:52.871Z,5.62
2019-05-07T21:46:04.296Z,5.60
2019-05-07T21:48:13.704Z,5.60
2019-05-07T21:50:21.911Z,5.57
2019-05-07T21:52:30.107Z,5.52
2019-05-07T21:54:43.499Z,5.49
2019-05-07T21:56:56.815Z,5.44
2019-05-07T21:59:16.797Z,5.38
2019-05-07T22:01:28.766Z,5.31
2019-05-07T22:03:35.530Z,5.24
2019-05-07T22:05:44.148Z,5.21
2019-05-07T22:07:54.242Z,5.16
2019-05-07T22:09:58.277Z,5.10
2019-05-07T22:12:04.740Z,5.04
2019-05-07T22:14:12.873Z,4.99
2019-05-07T22:16:19.498Z,4.95
2019-05-07T22:18:25.961Z,4.87
2019-05-07T22:20:32.443Z,4.80
2019-05-07T22:22:38.837Z,4.74
2019-05-07T22:24:45.336Z,4.68
2019-05-07T22:26:51.784Z,4.64
2019-05-07T22:28:58.343Z,4.63
2019-05-07T22:31:06.599Z,4.61
2019-05-07T22:33:14.716Z,4.63
2019-05-07T22:35:22.830Z,4.58
2019-05-07T22:37:46.894Z,4.44
2019-05-07T22:39:54.923Z,4.34
2019-05-07T22:42:02.991Z,4.30
2019-05-07T22:44:12.047Z,4.22
2019-05-07T22:46:18.167Z,4.19
2019-05-07T22:48:24.560Z,4.15
2019-05-07T22:50:33.026Z,4.09
2019-05-07T22:52:39.142Z,4.02
2019-05-07T22:54:45.692Z,3.98
2019-05-07T22:56:59.721Z,3.96
2019-05-07T22:59:06.154Z,3.93
2019-05-07T23:01:14.253Z,3.90
2019-05-07T23:03:22.800Z,3.86
2019-05-07T23:05:28.834Z,3.79
2019-05-07T23:07:35.238Z,3.73
2019-05-07T23:09:41.955Z,3.62
2019-05-07T23:11:49.785Z,3.55
2019-05-07T23:13:56.184Z,3.46
2019-05-07T23:16:02.751Z,3.41
2019-05-07T23:18:09.195Z,3.39
2019-05-07T23:20:15.821Z,3.39
2019-05-07T23:22:22.735Z,3.40
2019-05-07T23:24:29.334Z,3.40
2019-05-07T23:26:47.219Z,3.36
2019-05-07T23:28:43.835Z,3.34
2019-05-07T23:30:51.826Z,3.32
2019-05-07T23:32:58.615Z,3.31
2019-05-07T23:35:05.774Z,3.30
2019-05-07T23:37:12.331Z,3.31
2019-05-07T23:39:20.506Z,3.31
2019-05-07T23:41:42.047Z,3.27
2019-05-07T23:44:06.612Z,3.19
2019-05-07T23:46:13.135Z,3.09
2019-05-07T23:48:19.529Z,3.00
2019-05-07T23:50:25.950Z,2.96
2019-05-07T23:52:32.336Z,2.92
2019-05-07T23:54:38.733Z,2.88
2019-05-07T23:56:45.219Z,2.85
2019-05-07T23:58:52.509Z,2.82
